createdAt,value
2023-05-02T00:01:21.759Z,5.63
2023-05-02T00:03:49.239Z,5.85
2023-05-02T00:06:16.915Z,5.90
2023-05-02T00:08:44.426Z,7.90
2023-05-02T00:11:11.787Z,4.82
2023-05-02T00:13:39.135Z,6.30
2023-05-02T00:16:06.782Z,5.70
2023-05-02T00:18:34.182Z,5.90
2023-05-02T00:21:01.477Z,5.60
2023-05-02T00:23:28.800Z,5.32
2023-05-02T00:25:56.078Z,5.10
2023-05-02T00:28:23.474Z,6.82
2023-05-02T00:30:50.773Z,6.55
2023-05-02T00:33:18.091Z,5.15
2023-05-02T00:35:45.422Z,4.93
2023-05-02T00:38:12.730Z,6.65
2023-05-02T00:40:47.648Z,5.22
2023-05-02T00:43:15.677Z,6.43
2023-05-02T00:45:43.897Z,5.22
2023-05-02T00:48:11.595Z,4.38
2023-05-02T00:50:43.251Z,5.28
2023-05-02T00:53:10.941Z,5.30
2023-05-02T00:55:38.484Z,5.13
2023-05-02T00:58:17.133Z,4.75
2023-05-02T01:01:12.748Z,5.85
2023-05-02T01:04:02.330Z,4.97
2023-05-02T01:06:41.986Z,4.50
2023-05-02T01:09:24.956Z,4.45
2023-05-02T01:12:16.154Z,4.22
2023-05-02T01:14:45.650Z,4.32
2023-05-02T01:17:14.193Z,5.82
2023-05-02T01:19:49.354Z,5.15
2023-05-02T01:22:17.199Z,5.45
2023-05-02T01:24:58.341Z,5.50
2023-05-02T01:27:36.924Z,4.25
2023-05-02T01:30:04.493Z,5.75
2023-05-02T01:32:33.479Z,6.45
2023-05-02T01:35:01.196Z,4.50
2023-05-02T01:37:29.584Z,5.80
2023-05-02T01:39:57.035Z,4.45
2023-05-02T01:42:24.494Z,6.40
2023-05-02T01:44:51.846Z,5.63
2023-05-02T01:47:19.367Z,5.07
2023-05-02T01:49:47.126Z,6.32
2023-05-02T01:52:14.932Z,4.75
2023-05-02T01:54:42.495Z,6.85
2023-05-02T01:57:09.988Z,6.00
2023-05-02T01:59:37.435Z,5.45
2023-05-02T02:02:05.059Z,5.35
2023-05-02T02:04:32.428Z,6.90
2023-05-02T02:07:02.695Z,6.25
2023-05-02T02:09:30.923Z,5.40
2023-05-02T02:12:13.226Z,8.60
2023-05-02T02:14:46.257Z,5.03
2023-05-02T02:17:22.380Z,6.55
2023-05-02T02:19:49.693Z,6.45
2023-05-02T02:22:17.012Z,5.78
2023-05-02T02:24:44.393Z,5.10
2023-05-02T02:27:11.770Z,5.05
2023-05-02T02:29:39.078Z,5.03
2023-05-02T02:32:06.448Z,4.97
2023-05-02T02:34:33.732Z,4.30
2023-05-02T02:37:02.998Z,4.97
2023-05-02T02:40:07.803Z,4.85
2023-05-02T02:42:58.540Z,5.78
2023-05-02T02:46:04.449Z,4.72
2023-05-02T02:48:37.657Z,4.80
2023-05-02T02:51:14.888Z,6.15
2023-05-02T02:53:56.261Z,6.45
2023-05-02T02:56:28.602Z,5.85
2023-05-02T02:59:02.765Z,4.50
2023-05-02T03:01:31.845Z,4.38
2023-05-02T03:03:59.311Z,4.10
2023-05-02T03:06:27.426Z,5.18
2023-05-02T03:08:57.191Z,5.13
2023-05-02T03:11:29.624Z,5.22
2023-05-02T03:13:58.234Z,6.47
2023-05-02T03:16:35.306Z,4.55
2023-05-02T03:19:04.292Z,5.25
2023-05-02T03:21:31.974Z,5.40
2023-05-02T03:24:05.736Z,4.22
2023-05-02T03:26:33.123Z,4.70
2023-05-02T03:29:01.098Z,4.90
2023-05-02T03:31:34.254Z,5.05
2023-05-02T03:34:02.210Z,7.20
2023-05-02T03:36:29.592Z,5.40
2023-05-02T03:38:57.404Z,5.20
2023-05-02T03:41:25.543Z,4.03
2023-05-02T03:44:00.103Z,4.05
2023-05-02T03:46:28.783Z,4.97
2023-05-02T03:48:59.793Z,5.82
2023-05-02T03:51:27.143Z,6.20
2023-05-02T03:53:58.434Z,6.03
2023-05-02T03:56:26.453Z,4.75
2023-05-02T03:59:16.896Z,4.93
2023-05-02T04:01:45.009Z,6.18
2023-05-02T04:04:14.561Z,4.70
2023-05-02T04:06:49.613Z,4.60
2023-05-02T04:09:19.131Z,9.32
2023-05-02T04:11:52.400Z,6.18
2023-05-02T04:14:19.840Z,6.30
2023-05-02T04:16:49.156Z,6.55
2023-05-02T04:19:19.844Z,4.97
2023-05-02T04:21:47.129Z,5.63
2023-05-02T04:24:15.640Z,5.53
2023-05-02T04:26:43.289Z,5.50
2023-05-02T04:29:13.571Z,5.03
2023-05-02T04:31:41.834Z,5.65
2023-05-02T04:34:10.322Z,8.00
2023-05-02T04:36:44.885Z,5.57
2023-05-02T04:39:15.560Z,6.13
2023-05-02T04:41:51.229Z,5.57
2023-05-02T04:44:18.668Z,6.30
2023-05-02T04:46:46.720Z,5.05
2023-05-02T04:49:14.137Z,5.68
2023-05-02T04:51:41.966Z,6.53
2023-05-02T04:54:09.356Z,5.00
2023-05-02T04:56:36.851Z,5.90
2023-05-02T04:59:04.813Z,6.68
2023-05-02T05:01:33.606Z,4.85
2023-05-02T05:04:02.985Z,5.55
2023-05-02T05:06:32.093Z,5.28
2023-05-02T05:09:00.385Z,7.88
2023-05-02T05:11:27.681Z,5.03
2023-05-02T05:13:55.353Z,8.30
2023-05-02T05:16:23.723Z,6.00
2023-05-02T05:18:54.285Z,7.97
2023-05-02T05:21:21.593Z,7.15
2023-05-02T05:23:49.747Z,7.25
2023-05-02T05:26:25.670Z,12.48
2023-05-02T05:28:53.234Z,12.65
2023-05-02T05:31:22.982Z,9.38
2023-05-02T05:33:54.478Z,12.43
2023-05-02T05:36:23.753Z,7.28
2023-05-02T05:38:51.718Z,6.90
2023-05-02T05:41:19.812Z,8.32
2023-05-02T05:43:51.249Z,11.88
2023-05-02T05:46:18.949Z,6.03
2023-05-02T05:48:46.944Z,9.45
2023-05-02T05:51:14.574Z,6.75
2023-05-02T05:53:41.974Z,7.72
2023-05-02T05:56:12.388Z,7.80
2023-05-02T05:58:44.240Z,7.00
2023-05-02T06:01:13.700Z,8.55
2023-05-02T06:03:41.508Z,8.80
2023-05-02T06:06:09.095Z,8.27
2023-05-02T06:08:36.446Z,6.25
2023-05-02T06:11:11.796Z,9.70
2023-05-02T06:13:39.231Z,7.65
2023-05-02T06:16:08.006Z,7.15
2023-05-02T06:18:35.553Z,8.52
2023-05-02T06:21:06.270Z,9.80
2023-05-02T06:23:33.664Z,10.07
2023-05-02T06:26:02.714Z,7.82
2023-05-02T06:28:30.411Z,9.43
2023-05-02T06:31:01.857Z,10.70
2023-05-02T06:33:29.916Z,8.70
2023-05-02T06:35:58.166Z,8.10
2023-05-02T06:38:26.542Z,7.90
2023-05-02T06:40:53.895Z,11.55
2023-05-02T06:43:21.552Z,6.13
2023-05-02T06:45:48.915Z,9.20
2023-05-02T06:48:16.380Z,10.40
2023-05-02T06:50:43.813Z,7.32
2023-05-02T06:53:11.135Z,10.27
2023-05-02T06:55:38.741Z,8.60
2023-05-02T06:58:06.466Z,8.13
2023-05-02T07:00:33.943Z,7.60
2023-05-02T07:03:01.333Z,9.23
2023-05-02T07:05:29.663Z,9.35
2023-05-02T07:07:56.978Z,10.40
2023-05-02T07:10:24.328Z,10.48
2023-05-02T07:12:51.689Z,8.77
2023-05-02T07:15:19.202Z,11.32
2023-05-02T07:17:47.795Z,9.20
2023-05-02T07:20:16.449Z,11.35
2023-05-02T07:22:43.827Z,10.85
2023-05-02T07:25:11.346Z,10.88
2023-05-02T07:27:38.737Z,11.23
2023-05-02T07:30:07.021Z,13.77
2023-05-02T07:32:34.596Z,11.02
2023-05-02T07:35:02.076Z,9.38
2023-05-02T07:37:34.790Z,8.00
2023-05-02T07:40:02.720Z,12.52
2023-05-02T07:42:31.177Z,10.68
2023-05-02T07:44:58.847Z,12.45
2023-05-02T07:47:26.761Z,10.63
2023-05-02T07:49:54.468Z,10.60
2023-05-02T07:52:21.916Z,10.05
2023-05-02T07:54:51.994Z,9.50
2023-05-02T07:57:19.394Z,11.30
2023-05-02T07:59:46.839Z,9.90
2023-05-02T08:02:14.429Z,9.90
2023-05-02T08:04:41.856Z,11.80
2023-05-02T08:07:09.355Z,13.02
2023-05-02T08:09:36.651Z,15.25
2023-05-02T08:12:04.106Z,11.70
2023-05-02T08:14:31.683Z,10.65
2023-05-02T08:16:59.705Z,10.20
2023-05-02T08:19:27.505Z,13.10
2023-05-02T08:21:55.404Z,13.45
2023-05-02T08:24:23.081Z,13.48
2023-05-02T08:26:50.868Z,12.27
2023-05-02T08:29:18.720Z,11.85
2023-05-02T08:31:46.336Z,13.68
2023-05-02T08:34:13.794Z,12.23
2023-05-02T08:36:41.186Z,9.70
2023-05-02T08:39:09.361Z,11.55
2023-05-02T08:41:36.771Z,12.85
2023-05-02T08:44:04.247Z,11.20
2023-05-02T08:46:31.610Z,11.55
2023-05-02T08:48:59.202Z,12.15
2023-05-02T08:51:27.224Z,10.35
2023-05-02T08:53:54.694Z,13.25
2023-05-02T08:56:22.042Z,19.50
2023-05-02T08:58:49.466Z,11.07
2023-05-02T09:01:17.901Z,13.25
2023-05-02T09:03:46.107Z,13.38
2023-05-02T09:06:15.890Z,12.85
2023-05-02T09:08:44.511Z,12.05
2023-05-02T09:11:12.655Z,14.70
2023-05-02T09:13:41.033Z,11.65
2023-05-02T09:16:11.135Z,16.10
2023-05-02T09:18:42.558Z,17.20
2023-05-02T09:21:12.545Z,15.35
2023-05-02T09:23:41.916Z,13.13
2023-05-02T09:26:19.275Z,11.40
2023-05-02T09:28:47.373Z,13.90
2023-05-02T09:31:43.591Z,12.10
2023-05-02T09:34:18.444Z,12.85
2023-05-02T09:36:46.960Z,16.30
2023-05-02T09:39:16.170Z,12.25
2023-05-02T09:41:45.039Z,14.95
2023-05-02T09:44:13.580Z,18.77
2023-05-02T09:46:45.058Z,12.75
2023-05-02T09:49:12.520Z,13.23
2023-05-02T09:51:39.839Z,16.77
2023-05-02T09:54:07.168Z,12.50
2023-05-02T09:56:56.321Z,12.80
2023-05-02T09:59:24.013Z,14.88
2023-05-02T10:02:11.474Z,13.40
2023-05-02T10:04:39.572Z,11.95
2023-05-02T10:07:07.399Z,13.55
2023-05-02T10:09:35.811Z,12.13
2023-05-02T10:12:08.236Z,16.17
2023-05-02T10:14:49.428Z,12.90
2023-05-02T10:17:19.904Z,12.38
2023-05-02T10:19:56.301Z,14.88
2023-05-02T10:22:23.743Z,20.35
2023-05-02T10:24:51.188Z,12.70
2023-05-02T10:27:18.684Z,11.25
2023-05-02T10:29:46.801Z,16.45
2023-05-02T10:32:14.933Z,13.68
2023-05-02T10:34:42.478Z,12.40
2023-05-02T10:37:09.890Z,13.00
2023-05-02T10:39:37.927Z,10.35
2023-05-02T10:42:05.602Z,10.93
2023-05-02T10:44:36.889Z,14.50
2023-05-02T10:47:27.021Z,13.02
2023-05-02T10:50:02.123Z,9.23
2023-05-02T10:52:38.164Z,13.95
2023-05-02T10:55:18.005Z,12.25
2023-05-02T10:58:00.524Z,11.98
2023-05-02T11:00:32.543Z,10.88
2023-05-02T11:03:00.488Z,11.77
2023-05-02T11:05:28.202Z,11.10
2023-05-02T11:08:27.816Z,12.60
2023-05-02T11:10:55.158Z,15.15
2023-05-02T11:13:55.104Z,18.48
2023-05-02T11:16:22.459Z,17.95
2023-05-02T11:18:59.395Z,22.10
2023-05-02T11:21:30.170Z,20.83
2023-05-02T11:24:42.409Z,26.45
2023-05-02T11:27:38.549Z,23.02
2023-05-02T11:30:10.138Z,24.40
2023-05-02T11:32:50.094Z,24.40
2023-05-02T11:35:21.166Z,25.15
2023-05-02T11:37:58.465Z,21.08
2023-05-02T11:40:26.972Z,22.38
2023-05-02T11:42:54.534Z,27.60
2023-05-02T11:45:22.523Z,32.17
2023-05-02T11:47:51.143Z,23.90
2023-05-02T11:50:18.536Z,24.08
2023-05-02T11:52:46.182Z,23.67
2023-05-02T11:55:15.033Z,23.27
2023-05-02T11:57:42.965Z,23.52
2023-05-02T12:00:13.503Z,25.52
2023-05-02T12:02:45.655Z,21.48
2023-05-02T12:05:14.010Z,17.15
2023-05-02T12:07:45.805Z,20.75
2023-05-02T12:10:13.505Z,23.00
2023-05-02T12:12:42.838Z,20.40
2023-05-02T12:15:11.655Z,19.63
2023-05-02T12:17:43.597Z,21.77
2023-05-02T12:20:11.629Z,20.88
2023-05-02T12:22:39.076Z,18.55
2023-05-02T12:25:07.194Z,21.35
2023-05-02T12:27:35.229Z,18.80
2023-05-02T12:30:03.059Z,18.73
2023-05-02T12:32:34.408Z,19.52
2023-05-02T12:35:03.763Z,20.70
2023-05-02T12:37:31.233Z,19.38
2023-05-02T12:39:58.908Z,18.90
2023-05-02T12:42:26.966Z,22.85
2023-05-02T12:44:54.433Z,18.88
2023-05-02T12:47:25.138Z,20.02
2023-05-02T12:49:57.804Z,20.40
2023-05-02T12:52:51.238Z,15.38
2023-05-02T12:55:23.334Z,19.85
2023-05-02T12:57:51.133Z,20.10
2023-05-02T13:00:18.554Z,18.08
2023-05-02T13:02:45.992Z,21.15
2023-05-02T13:05:19.508Z,16.73
2023-05-02T13:07:47.194Z,20.47
2023-05-02T13:10:17.837Z,17.55
2023-05-02T13:12:47.081Z,14.35
2023-05-02T13:15:14.666Z,17.42
2023-05-02T13:17:42.175Z,17.10
2023-05-02T13:20:10.564Z,15.80
2023-05-02T13:22:38.503Z,14.75
2023-05-02T13:25:06.970Z,16.00
2023-05-02T13:27:34.536Z,13.43
2023-05-02T13:30:03.954Z,11.48
2023-05-02T13:32:32.995Z,12.93
2023-05-02T13:35:00.481Z,11.30
2023-05-02T13:37:27.999Z,13.93
2023-05-02T13:39:55.496Z,13.05
2023-05-02T13:42:23.061Z,11.77
2023-05-02T13:44:50.522Z,9.45
2023-05-02T13:47:17.846Z,10.32
2023-05-02T13:49:45.138Z,13.20
2023-05-02T13:52:12.596Z,12.82
2023-05-02T13:54:40.168Z,9.18
2023-05-02T13:57:07.491Z,11.88
2023-05-02T13:59:36.126Z,11.57
2023-05-02T14:02:03.907Z,18.20
2023-05-02T14:04:31.315Z,8.35
2023-05-02T14:06:58.603Z,9.77
2023-05-02T14:09:26.264Z,6.90
2023-05-02T14:11:53.627Z,8.85
2023-05-02T14:14:20.937Z,8.70
2023-05-02T14:16:50.266Z,10.75
2023-05-02T14:19:18.110Z,8.35
2023-05-02T14:21:45.482Z,19.23
2023-05-02T14:24:14.833Z,8.48
2023-05-02T14:26:42.131Z,7.68
2023-05-02T14:29:09.398Z,13.48
2023-05-02T14:31:36.890Z,10.07
2023-05-02T14:34:05.354Z,13.73
2023-05-02T14:36:33.688Z,10.65
2023-05-02T14:39:01.002Z,14.95
2023-05-02T14:41:28.357Z,14.27
2023-05-02T14:43:55.782Z,11.73
2023-05-02T14:46:23.660Z,16.02
2023-05-02T14:48:51.018Z,13.38
2023-05-02T14:51:18.387Z,11.68
2023-05-02T14:53:47.769Z,11.10
2023-05-02T14:56:17.187Z,12.30
2023-05-02T14:58:44.548Z,14.10
2023-05-02T15:01:19.617Z,10.45
2023-05-02T15:04:04.260Z,9.48
2023-05-02T15:06:33.177Z,12.82
2023-05-02T15:09:01.711Z,12.73
2023-05-02T15:11:29.079Z,10.52
2023-05-02T15:13:58.440Z,10.57
2023-05-02T15:16:29.627Z,13.05
2023-05-02T15:18:57.181Z,11.60
2023-05-02T15:21:24.504Z,9.50
2023-05-02T15:23:51.858Z,12.93
2023-05-02T15:26:19.269Z,12.90
2023-05-02T15:28:46.585Z,8.35
2023-05-02T15:31:14.159Z,6.68
2023-05-02T15:33:41.476Z,6.70
2023-05-02T15:36:08.957Z,6.80
2023-05-02T15:38:39.520Z,6.80
2023-05-02T15:41:08.071Z,7.40
2023-05-02T15:43:35.440Z,7.25
2023-05-02T15:46:02.787Z,6.47
2023-05-02T15:48:31.231Z,7.30
2023-05-02T15:50:58.821Z,5.70
2023-05-02T15:53:26.237Z,7.13
2023-05-02T15:55:53.688Z,7.40
2023-05-02T15:58:21.147Z,7.78
2023-05-02T16:00:48.506Z,6.68
2023-05-02T16:03:16.068Z,7.03
2023-05-02T16:05:43.552Z,7.90
2023-05-02T16:08:10.925Z,7.50
2023-05-02T16:10:40.278Z,15.18
2023-05-02T16:13:07.618Z,10.13
2023-05-02T16:15:34.984Z,10.93
2023-05-02T16:18:02.402Z,15.20
2023-05-02T16:20:29.823Z,12.40
2023-05-02T16:22:57.197Z,11.85
2023-05-02T16:25:24.552Z,6.97
2023-05-02T16:27:51.975Z,7.72
2023-05-02T16:30:19.374Z,7.90
2023-05-02T16:32:46.770Z,8.48
2023-05-02T16:35:14.228Z,7.53
2023-05-02T16:37:41.887Z,6.90
2023-05-02T16:40:09.588Z,8.45
2023-05-02T16:42:37.138Z,6.07
2023-05-02T16:45:04.795Z,7.78
2023-05-02T16:47:33.029Z,8.15
2023-05-02T16:50:01.738Z,7.95
2023-05-02T16:52:29.299Z,15.15
2023-05-02T16:54:56.684Z,8.45
2023-05-02T16:57:24.055Z,7.25
2023-05-02T16:59:52.035Z,9.30
2023-05-02T17:02:21.119Z,10.05
2023-05-02T17:04:49.778Z,10.52
2023-05-02T17:07:17.297Z,10.05
2023-05-02T17:09:44.733Z,11.43
2023-05-02T17:12:12.617Z,10.77
2023-05-02T17:14:42.425Z,9.80
2023-05-02T17:17:10.130Z,13.43
2023-05-02T17:19:38.078Z,10.23
2023-05-02T17:22:05.500Z,15.88
2023-05-02T17:24:33.212Z,16.17
2023-05-02T17:27:00.999Z,12.07
2023-05-02T17:29:28.782Z,14.60
2023-05-02T17:31:57.327Z,10.82
2023-05-02T17:34:28.491Z,10.80
2023-05-02T17:36:56.022Z,10.68
2023-05-02T17:39:23.490Z,10.25
2023-05-02T17:41:50.874Z,10.90
2023-05-02T17:44:18.548Z,11.80
2023-05-02T17:46:46.731Z,7.97
2023-05-02T17:49:14.180Z,9.15
2023-05-02T17:51:41.607Z,11.70
2023-05-02T17:54:08.988Z,10.32
2023-05-02T17:56:37.385Z,12.55
2023-05-02T17:59:07.446Z,12.77
2023-05-02T18:01:34.797Z,11.05
2023-05-02T18:04:04.093Z,11.88
2023-05-02T18:06:34.425Z,12.80
2023-05-02T18:09:01.814Z,6.38
2023-05-02T18:11:38.572Z,6.65
2023-05-02T18:14:06.309Z,8.52
2023-05-02T18:16:34.571Z,7.25
2023-05-02T18:19:02.120Z,8.93
2023-05-02T18:21:30.905Z,7.95
2023-05-02T18:23:58.263Z,7.97
2023-05-02T18:26:25.837Z,7.03
2023-05-02T18:28:53.700Z,6.88
2023-05-02T18:31:21.442Z,6.70
2023-05-02T18:33:48.902Z,8.18
2023-05-02T18:36:20.581Z,7.28
2023-05-02T18:38:47.974Z,6.55
2023-05-02T18:41:15.367Z,9.98
2023-05-02T18:43:42.700Z,8.77
2023-05-02T18:46:11.951Z,7.35
2023-05-02T18:48:39.505Z,8.75
2023-05-02T18:51:06.842Z,7.95
2023-05-02T18:53:34.222Z,7.88
2023-05-02T18:56:01.593Z,9.18
2023-05-02T18:58:28.970Z,8.23
2023-05-02T19:00:56.412Z,9.95
2023-05-02T19:03:23.941Z,10.88
2023-05-02T19:05:51.421Z,9.60
2023-05-02T19:08:18.742Z,11.38
2023-05-02T19:10:46.109Z,11.02
2023-05-02T19:13:14.534Z,9.95
2023-05-02T19:15:42.412Z,9.00
2023-05-02T19:18:09.844Z,10.00
2023-05-02T19:20:37.206Z,9.85
2023-05-02T19:23:18.933Z,9.68
2023-05-02T19:25:47.418Z,9.25
2023-05-02T19:28:18.081Z,8.32
2023-05-02T19:30:45.540Z,9.77
2023-05-02T19:33:12.999Z,9.63
2023-05-02T19:35:40.461Z,10.52
2023-05-02T19:38:08.022Z,12.75
2023-05-02T19:40:35.376Z,12.38
2023-05-02T19:43:02.703Z,10.02
2023-05-02T19:45:30.078Z,32.78
2023-05-02T19:47:57.556Z,14.75
2023-05-02T19:50:26.170Z,11.60
2023-05-02T19:52:53.508Z,11.35
2023-05-02T19:55:21.183Z,9.85
2023-05-02T19:57:48.894Z,10.77
2023-05-02T20:00:17.162Z,11.50
2023-05-02T20:02:45.494Z,11.93
2023-05-02T20:05:13.045Z,11.45
2023-05-02T20:07:41.555Z,13.13
2023-05-02T20:10:09.415Z,11.60
2023-05-02T20:12:36.746Z,10.10
2023-05-02T20:15:04.434Z,10.48
2023-05-02T20:17:31.867Z,10.98
2023-05-02T20:19:59.269Z,10.45
2023-05-02T20:22:26.690Z,15.40
2023-05-02T20:24:54.217Z,11.10
2023-05-02T20:27:21.921Z,12.32
2023-05-02T20:29:49.238Z,11.50
2023-05-02T20:32:16.875Z,12.70
2023-05-02T20:34:44.301Z,13.07
2023-05-02T20:37:12.624Z,12.27
2023-05-02T20:39:39.980Z,11.45
2023-05-02T20:42:07.609Z,13.77
2023-05-02T20:44:36.430Z,12.57
2023-05-02T20:47:04.014Z,13.60
2023-05-02T20:49:34.562Z,11.07
2023-05-02T20:52:05.747Z,12.93
2023-05-02T20:54:33.094Z,13.63
2023-05-02T20:57:00.455Z,14.00
2023-05-02T20:59:27.806Z,14.07
2023-05-02T21:01:55.232Z,11.77
2023-05-02T21:04:22.833Z,11.88
2023-05-02T21:06:50.245Z,14.65
2023-05-02T21:09:17.656Z,12.40
2023-05-02T21:11:45.979Z,13.25
2023-05-02T21:14:13.288Z,12.10
2023-05-02T21:16:40.634Z,10.82
2023-05-02T21:19:08.014Z,12.13
2023-05-02T21:21:35.471Z,13.48
2023-05-02T21:24:03.974Z,12.90
2023-05-02T21:26:31.639Z,14.18
2023-05-02T21:28:59.027Z,17.10
2023-05-02T21:31:26.702Z,15.48
2023-05-02T21:33:54.132Z,15.27
2023-05-02T21:36:21.423Z,13.23
2023-05-02T21:38:48.751Z,16.92
2023-05-02T21:41:16.162Z,12.95
2023-05-02T21:43:43.591Z,16.02
2023-05-02T21:46:11.719Z,13.20
2023-05-02T21:48:39.087Z,14.48
2023-05-02T21:51:10.005Z,19.27
2023-05-02T21:53:37.627Z,17.90
2023-05-02T21:56:06.509Z,15.55
2023-05-02T21:58:33.886Z,15.43
2023-05-02T22:01:01.498Z,16.80
2023-05-02T22:03:30.146Z,18.02
2023-05-02T22:06:00.982Z,13.85
2023-05-02T22:08:28.453Z,14.30
2023-05-02T22:10:55.784Z,15.60
2023-05-02T22:13:24.079Z,18.80
2023-05-02T22:15:51.523Z,17.85
2023-05-02T22:18:18.915Z,14.88
2023-05-02T22:20:46.451Z,14.50
2023-05-02T22:23:14.056Z,15.65
2023-05-02T22:25:43.068Z,16.60
2023-05-02T22:28:13.815Z,16.45
2023-05-02T22:30:43.004Z,18.17
2023-05-02T22:33:10.554Z,15.07
2023-05-02T22:35:38.052Z,14.00
2023-05-02T22:38:06.168Z,17.30
2023-05-02T22:40:33.508Z,16.83
2023-05-02T22:43:01.370Z,16.75
2023-05-02T22:45:28.733Z,16.15
2023-05-02T22:47:56.141Z,16.95
2023-05-02T22:50:26.129Z,17.95
2023-05-02T22:52:56.984Z,15.77
2023-05-02T22:55:24.678Z,15.65
2023-05-02T22:57:52.126Z,15.05
2023-05-02T23:00:19.849Z,17.25
2023-05-02T23:02:47.257Z,15.45
2023-05-02T23:05:14.699Z,17.63
2023-05-02T23:07:42.121Z,21.98
2023-05-02T23:10:09.816Z,16.42
2023-05-02T23:12:37.145Z,18.33
2023-05-02T23:15:04.836Z,14.93
2023-05-02T23:17:32.307Z,17.02
2023-05-02T23:19:59.847Z,15.50
2023-05-02T23:22:27.376Z,14.07
2023-05-02T23:24:54.738Z,14.02
2023-05-02T23:27:22.181Z,14.20
2023-05-02T23:29:49.612Z,14.68
2023-05-02T23:32:16.977Z,17.70
2023-05-02T23:34:44.412Z,14.77
2023-05-02T23:37:12.738Z,12.00
2023-05-02T23:39:40.299Z,14.18
2023-05-02T23:42:07.739Z,14.10
2023-05-02T23:44:35.087Z,12.68
2023-05-02T23:47:02.499Z,18.98
2023-05-02T23:49:29.999Z,13.32
2023-05-02T23:51:57.441Z,14.45
2023-05-02T23:54:24.866Z,14.40
2023-05-02T23:56:53.372Z,13.30
2023-05-02T23:59:20.719Z,14.93
